Aviation Digital Data Service (ADDS)

Output produced by METARs form (0237 UTC 19 February 2019)
found at http://www.aviationweather.gov/metar/data/
 
TAF LRTZ 182300Z 1900/2000 16008KT 4000 BR SKC 
     PROB40 
     TEMPO 1902/1906 0800 FG BKN002 
     BECMG 1907/1908 9999 SCT015 
     BECMG 1916/1918 5000 BR SCT010
       
LRCK 190230Z 00000KT 0800 R18/P2000 R36/0700N PRFG NSC 01/01 Q1024 NOSIG
TAF LRCK 182300Z 1900/1924 VRB04KT 3000 BR NSC 
     BECMG 1900/1902 1500 BR BKN005 
     PROB30 
     TEMPO 1902/1906 0600 FG VV002 
     BECMG 1907/1909 16010KT 9999 NSW 
     BECMG 1916/1918 5000 BR
       
LRTC 190230Z AUTO 02004KT 9999 NCD 01/M01 Q1024
TAF LRTC 190200Z 1903/1912 VRB04KT CAVOK 
     TEMPO 1904/1907 3000 BR 
     BECMG 1909/1911 16010KT
       
TAF LRBO 182300Z 1900/2000 VRB02KT 5000 BR FEW200 
     BECMG 1902/1904 2000 BR 
     PROB40 
     TEMPO 1905/1908 0800 FG VV002 
     BECMG 1908/1910 20006KT SCT100
       
LRBC 190230Z AUTO 10002KT 0200 R34/0225N FG FEW001/// SCT003/// ///// Q1023
TAF LRBC 190200Z 1903/1912 VRB04KT 0600 FG SCT002 
     TEMPO 1903/1906 0350 FG VV001 
     BECMG 1906/1908 16010KT 3000 BR 
     BECMG 1908/1910 CAVOK
       
LRIA 190230Z 10009KT CAVOK 01/M01 Q1023
TAF LRIA 190200Z 1903/1912 08008KT CAVOK 
     TEMPO 1903/1906 3000 BR 
     BECMG 1908/1910 15010KT
       
LRSV 190230Z 15006KT 8000 NSC 01/M00 Q1021
TAF LRSV 190200Z 1903/1912 16008KT CAVOK 
     TEMPO 1903/1906 3000 BR
       
LROP 190230Z 01005KT 4000 BR NSC 01/00 Q1023 TEMPO 1500 BR
TAF LROP 182300Z 1900/1924 VRB04KT 1500 BR BKN005 
     BECMG 1900/1902 0600 FG BKN002 
     PROB30 
     TEMPO 1902/1906 0300 FZFG VV001 
     BECMG 1907/1909 5000 SCT010 
     BECMG 1909/1911 CAVOK 
     BECMG 1920/1922 3000 BR
       
LRBS 190230Z 06002KT 3000 BR NSC M00/M01 Q1023 TEMPO 1500 BR
TAF LRBS 182300Z 1900/1924 VRB04KT 1500 BR BKN005 
     BECMG 1900/1902 0600 FG BKN002 
     PROB30 
     TEMPO 1902/1906 0300 FZFG VV001 
     BECMG 1907/1909 5000 SCT010 
     BECMG 1909/1911 CAVOK 
     BECMG 1920/1922 3000 BR
       
LRCV 190230Z 05005KT 6000 NSC 01/M00 Q1022
TAF LRCV 190200Z 1903/1912 VRB04KT 5000 BR NSC 
     TEMPO 1903/1906 1500 BR BKN005 
     BECMG 1907/1909 CAVOK
       
LRSB 190230Z 21002KT 2500 BR NSC M04/M05 Q1022 NOSIG
TAF LRSB 182300Z 1900/1924 VRB04KT 3000 BR BKN010 
     BECMG 1900/1902 0800 FZFG BKN002 
     PROB40 
     TEMPO 1902/1906 0300 FZFG VV001 
     BECMG 1906/1908 3000 BR BKN010 
     BECMG 1908/1910 CAVOK 
     BECMG 1919/1921 5000 BR
       
LRAR 190230Z AUTO 14004KT 8000 NCD 02/00 Q1021
TAF LRAR 190200Z 1903/1912 15007KT CAVOK 
     TEMPO 1903/1906 3000 BR BKN010
       
LRCL 190230Z 14003KT 0100 R25/0225N FZFG VV001 M04/M05 Q1023 R07/15//95
TAF LRCL 190200Z 1903/1912 VRB04KT 0150 FZFG VV001 
     BECMG 1906/1908 0800 FZFG OVC002 
     BECMG 1908/1910 1500 BR BKN005 
     BECMG 1910/1912 5000 NSC
       
LRTR 190230Z 13007KT 5000 BR NSC M02/M02 Q1021
TAF LRTR 182300Z 1900/1924 VRB04KT 5000 BR NSC 
     TEMPO 1901/1906 1500 BR BKN005 
     BECMG 1906/1908 CAVOK
       
LRTM 190230Z AUTO 09005KT 0500 R07/0500V0750D FZFG FEW001/// M03/M04 Q1023
TAF LRTM 190200Z 1903/1912 VRB04KT 0150 FZFG VV001 
     BECMG 1906/1908 0800 FZFG OVC002 
     BECMG 1908/1910 1500 BR BKN005 
     BECMG 1910/1912 5000 NSC
       
LRBM 190230Z AUTO 10006KT 7000 FEW021/// SCT170/// 01/M01 Q1023
TAF LRBM 190200Z 1903/1912 VRB04KT CAVOK 
     TEMPO 1905/1907 3000 BR
       
LRSM 190230Z AUTO 11003KT 5000 BR NCD M02/M02 Q1022
TAF LRSM 190200Z 1903/1912 11007KT 5000 BR NSC 
     TEMPO 1903/1906 1500 BR BKN005 
     BECMG 1906/1908 CAVOK
       
LROD 190230Z AUTO 11006KT 8000 NCD M00/M01 Q1021
TAF LROD 190200Z 1903/1912 11007KT CAVOK 
     TEMPO 1903/1906 3000 BR BKN010
       
LRCT 182300Z VRB03KT 2000 BR BKN002 M02/M03 Q1025 AMB AMB
TAF LRCT 182300Z 1900/2000 VRB03KT 0300 FZFG VV002 
     BECMG 1911/1913 12003KT 5000 BR SCT004 
     BECMG 1914/1916 VRB03KT 9999 FEW150 
     BECMG 1921/1923 24003KT 3000 BR SKC